Time;durP1;ratioP1;P1;durP2;ratioP2;P2;SDS_P1;SDS_P2;PMS_P1;PMS_P2;Temp;Humidity;BMP_temperature;BMP_pressure;BME280_temperature;BME280_humidity;BME280_pressure;Samples;Min_cycle;Max_cycle;Signal;HPM_P1;HPM_P2
2022/11/24 00:00:52;;;;;;;0.40;0.23;;;;;;;5.73;100.00;99379.91;5036217;28;20825;-55
2022/11/24 00:03:18;;;;;;;0.40;0.40;;;;;;;5.81;100.00;99385.88;5026133;28;20483;-55
2022/11/24 00:05:45;;;;;;;3.60;0.60;;;;;;;5.79;100.00;99384.19;5041838;28;20462;-54
2022/11/24 00:08:12;;;;;;;0.50;0.30;;;;;;;6.04;100.00;99387.13;5026655;28;20515;-55
2022/11/24 00:10:38;;;;;;;1.97;1.03;;;;;;;6.12;100.00;99388.66;5041679;28;20525;-55
2022/11/24 00:13:04;;;;;;;0.50;0.50;;;;;;;6.22;100.00;99387.53;5042578;28;20478;-55
2022/11/24 00:15:31;;;;;;;0.50;0.40;;;;;;;6.18;100.00;99392.94;5037921;28;20509;-55
2022/11/24 00:17:57;;;;;;;2.23;1.50;;;;;;;6.35;100.00;99396.00;5036005;28;20455;-55
2022/11/24 00:20:23;;;;;;;1.10;0.47;;;;;;;6.33;100.00;99397.81;5032718;28;20459;-55
2022/11/24 00:22:50;;;;;;;0.40;0.20;;;;;;;6.36;100.00;99399.50;5026141;28;20501;-55
2022/11/24 00:25:16;;;;;;;0.77;0.77;;;;;;;6.24;100.00;99413.88;5041362;28;20513;-55
2022/11/24 00:27:42;;;;;;;5.33;0.97;;;;;;;6.29;100.00;99414.63;5042477;28;20490;-55
2022/11/24 00:30:09;;;;;;;0.60;0.60;;;;;;;5.99;100.00;99428.56;5038386;28;20485;-55
2022/11/24 00:32:36;;;;;;;0.53;0.50;;;;;;;5.96;100.00;99426.00;5035509;28;20483;-55
2022/11/24 00:35:03;;;;;;;5.63;2.23;;;;;;;5.94;100.00;99426.06;5041015;28;20462;-55
2022/11/24 00:37:29;;;;;;;0.83;0.77;;;;;;;5.83;100.00;99435.94;5042679;28;20481;-55
2022/11/24 00:39:55;;;;;;;1.53;0.90;;;;;;;5.77;100.00;99436.09;5037905;28;20997;-55
2022/11/24 00:42:22;;;;;;;16.23;1.03;;;;;;;6.00;100.00;99444.34;5035553;28;20965;-55
2022/11/24 00:44:48;;;;;;;0.40;0.40;;;;;;;5.90;100.00;99450.78;5040331;28;20891;-55
2022/11/24 00:47:14;;;;;;;15.90;0.77;;;;;;;6.00;100.00;99448.75;5042378;28;20494;-55
2022/11/24 00:49:41;;;;;;;0.83;0.83;;;;;;;5.89;100.00;99459.53;5038195;28;20458;-55
2022/11/24 00:52:07;;;;;;;0.90;0.50;;;;;;;5.92;100.00;99464.78;5035655;28;21046;-55
2022/11/24 00:54:34;;;;;;;9.53;0.40;;;;;;;5.93;100.00;99464.75;5039982;28;20885;-56
2022/11/24 00:57:00;;;;;;;1.33;0.70;;;;;;;6.02;100.00;99466.28;5042507;28;20490;-56
2022/11/24 00:59:27;;;;;;;0.70;0.50;;;;;;;6.16;100.00;99463.31;5029406;28;20474;-55
2022/11/24 01:01:53;;;;;;;0.60;0.60;;;;;;;6.16;100.00;99466.81;5030104;28;20475;-55
2022/11/24 01:04:20;;;;;;;0.50;0.50;;;;;;;6.29;100.00;99474.44;5039046;28;20489;-55
2022/11/24 01:06:47;;;;;;;23.97;1.43;;;;;;;6.35;100.00;99469.91;5027898;28;21030;-55
2022/11/24 01:09:13;;;;;;;0.70;0.70;;;;;;;6.68;100.00;99478.72;5039154;28;20525;-55
2022/11/24 01:14:25;;;;;;;0.93;0.73;;;;;;;6.93;100.00;99496.59;5036465;28;20451;-55
2022/11/24 01:16:52;;;;;;;17.63;1.37;;;;;;;7.02;100.00;99491.06;5042108;28;20502;-54
2022/11/24 01:19:18;;;;;;;4.93;0.70;;;;;;;7.16;100.00;99495.97;5042041;28;20443;-55
2022/11/24 01:21:45;;;;;;;0.83;0.83;;;;;;;7.19;100.00;99495.88;5035426;28;20470;-55
2022/11/24 01:24:12;;;;;;;4.17;1.13;;;;;;;7.21;100.00;99500.22;5035730;28;20953;-55
2022/11/24 01:26:39;;;;;;;0.70;0.70;;;;;;;7.22;100.00;99498.44;5035616;28;20455;-55
2022/11/24 01:29:05;;;;;;;0.57;0.27;;;;;;;7.30;100.00;99499.97;5035203;28;20455;-55
2022/11/24 01:31:32;;;;;;;0.40;0.27;;;;;;;7.33;100.00;99501.66;5010110;28;20539;-55
2022/11/24 01:33:58;;;;;;;0.90;0.40;;;;;;;7.36;100.00;99499.78;5036087;28;20447;-55
2022/11/24 01:36:24;;;;;;;0.57;0.57;;;;;;;7.53;100.00;99501.06;5035496;28;20455;-55
2022/11/24 01:38:52;;;;;;;1.10;0.60;;;;;;;7.52;100.00;99509.91;5035104;28;20547;-56
2022/11/24 01:41:21;;;;;;;23.53;0.67;;;;;;;7.62;100.00;99503.44;5029031;28;20487;-55
2022/11/24 01:43:48;;;;;;;2.30;0.83;;;;;;;7.75;100.00;99507.47;5041989;28;20458;-55
2022/11/24 01:46:30;;;;;;;1.90;1.50;;;;;;;7.89;100.00;99505.28;5037099;28;20973;-55
2022/11/24 01:49:10;;;;;;;1.03;0.93;;;;;;;8.02;100.00;99506.63;5035032;28;20559;-55
2022/11/24 01:51:45;;;;;;;0.50;0.30;;;;;;;8.19;100.00;99514.03;5035987;28;20471;-55
2022/11/24 01:54:19;;;;;;;1.23;1.20;;;;;;;8.43;100.00;99516.88;5023741;28;20532;-55
2022/11/24 01:56:50;;;;;;;1.47;1.20;;;;;;;8.43;100.00;99504.50;5034984;28;20487;-55
2022/11/24 01:59:19;;;;;;;0.70;0.70;;;;;;;8.39;100.00;99512.59;5041226;28;20470;-55
2022/11/24 02:01:49;;;;;;;5.03;1.30;;;;;;;8.41;100.00;99495.72;5032960;28;20503;-55
2022/11/24 02:04:22;;;;;;;1.17;1.07;;;;;;;8.41;100.00;99501.03;5041250;28;20490;-55
2022/11/24 02:06:50;;;;;;;0.50;0.40;;;;;;;8.57;100.00;99498.75;5030542;28;20460;-55
2022/11/24 02:09:49;;;;;;;14.17;2.20;;;;;;;8.47;100.00;99507.91;5042392;28;20500;-55
2022/11/24 02:12:15;;;;;;;4.40;1.00;;;;;;;8.45;100.00;99510.59;5024012;28;20501;-55
2022/11/24 02:14:43;;;;;;;3.43;1.37;;;;;;;8.48;100.00;99518.44;5038574;28;20466;-55
2022/11/24 02:17:10;;;;;;;1.10;0.83;;;;;;;8.38;100.00;99511.72;5043355;28;20953;-56
2022/11/24 02:19:47;;;;;;;1.33;0.70;;;;;;;8.39;100.00;99515.25;5044908;28;20485;-55
2022/11/24 02:22:35;;;;;;;1.30;1.20;;;;;;;8.39;100.00;99517.88;5042139;28;20810;-55
2022/11/24 02:25:17;;;;;;;7.40;1.83;;;;;;;8.48;100.00;99509.63;5045048;28;20456;-56
2022/11/24 02:27:44;;;;;;;0.50;0.50;;;;;;;8.47;100.00;99505.25;5044931;28;20490;-56
2022/11/24 02:30:18;;;;;;;1.20;0.90;;;;;;;8.45;100.00;99505.31;5042132;28;20447;-55
2022/11/24 02:32:45;;;;;;;0.53;0.50;;;;;;;8.38;100.00;99503.78;5037894;28;20556;-54
2022/11/24 02:35:12;;;;;;;0.50;0.50;;;;;;;8.45;100.00;99504.44;5040685;28;21046;-54
2022/11/24 02:37:39;;;;;;;3.93;1.10;;;;;;;8.43;100.00;99509.78;5044140;28;20447;-53
2022/11/24 02:40:06;;;;;;;5.73;1.17;;;;;;;8.53;100.00;99521.81;5041503;28;20454;-55
2022/11/24 02:42:37;;;;;;;1.20;0.90;;;;;;;8.65;100.00;99514.41;5037370;28;20475;-53
2022/11/24 02:45:04;;;;;;;1.53;0.80;;;;;;;8.69;100.00;99508.94;5039108;28;20451;-54
2022/11/24 02:47:30;;;;;;;1.80;0.70;;;;;;;8.82;100.00;99514.69;5044159;28;20499;-54
2022/11/24 02:49:56;;;;;;;0.77;0.73;;;;;;;8.65;100.00;99504.66;5042857;28;20455;-55
2022/11/24 02:52:23;;;;;;;0.40;0.30;;;;;;;8.72;100.00;99508.81;5037019;28;20529;-53
2022/11/24 02:54:50;;;;;;;0.70;0.60;;;;;;;8.76;100.00;99509.56;5038642;28;20949;-53
2022/11/24 02:57:16;;;;;;;9.83;1.43;;;;;;;8.70;100.00;99509.78;5044270;28;20459;-54
2022/11/24 02:59:42;;;;;;;1.70;0.57;;;;;;;8.76;100.00;99509.56;5030562;28;20451;-56
2022/11/24 03:02:09;;;;;;;2.40;0.90;;;;;;;8.68;100.00;99514.28;5031187;28;20887;-53
2022/11/24 03:04:35;;;;;;;2.40;1.23;;;;;;;8.78;100.00;99505.13;5042688;28;20501;-53
2022/11/24 03:07:02;;;;;;;1.43;0.53;;;;;;;8.74;100.00;99506.13;5026967;28;20470;-54
2022/11/24 03:09:29;;;;;;;2.90;1.20;;;;;;;8.88;100.00;99512.69;5042364;28;20486;-53
2022/11/24 03:11:55;;;;;;;3.13;0.93;;;;;;;8.99;100.00;99504.38;5035982;28;20980;-53
2022/11/24 03:14:22;;;;;;;9.27;3.73;;;;;;;8.94;100.00;99501.00;5037440;28;20525;-54
2022/11/24 03:16:48;;;;;;;1.67;0.90;;;;;;;8.92;100.00;99507.28;5043635;28;20463;-54
2022/11/24 03:19:14;;;;;;;0.80;0.60;;;;;;;9.23;100.00;99507.06;5042998;28;20454;-53
2022/11/24 03:21:41;;;;;;;0.77;0.77;;;;;;;9.03;100.00;99503.31;5036807;28;20540;-55
2022/11/24 03:24:07;;;;;;;1.23;0.80;;;;;;;9.03;100.00;99486.56;5038383;28;20534;-55
2022/11/24 03:26:34;;;;;;;1.10;1.00;;;;;;;9.15;100.00;99502.91;5043698;28;20455;-53
2022/11/24 03:29:01;;;;;;;0.73;0.50;;;;;;;9.08;100.00;99497.88;5042429;28;20490;-54
2022/11/24 03:31:27;;;;;;;0.70;0.70;;;;;;;9.09;100.00;99505.78;5025311;28;20481;-53
2022/11/24 03:33:53;;;;;;;2.20;2.00;;;;;;;9.07;100.00;99502.31;5022923;28;20451;-54
2022/11/24 03:36:20;;;;;;;0.60;0.60;;;;;;;9.17;100.00;99501.06;5043208;28;20474;-53
2022/11/24 03:38:46;;;;;;;6.90;0.70;;;;;;;9.18;100.00;99502.81;5043003;28;21057;-54
2022/11/24 03:41:13;;;;;;;5.50;1.93;;;;;;;9.20;100.00;99510.72;5036047;28;20465;-53
2022/11/24 03:43:39;;;;;;;5.40;1.17;;;;;;;9.13;100.00;99503.88;5036072;28;20455;-53
2022/11/24 03:46:09;;;;;;;9.50;1.73;;;;;;;9.20;100.00;99516.88;5024548;28;20885;-53
2022/11/24 03:48:36;;;;;;;2.90;0.83;;;;;;;9.31;100.00;99513.81;5036112;28;20596;-53
2022/11/24 03:51:02;;;;;;;1.07;0.60;;;;;;;9.38;100.00;99517.13;5042175;28;20455;-55
2022/11/24 03:53:30;;;;;;;0.70;0.70;;;;;;;9.42;100.00;99519.59;5042886;28;20850;-54
2022/11/24 03:55:57;;;;;;;20.87;2.40;;;;;;;9.61;100.00;99518.94;5037345;28;20455;-53
2022/11/24 03:58:24;;;;;;;2.07;1.07;;;;;;;9.61;100.00;99516.31;5034718;28;20448;-53
2022/11/24 04:00:52;;;;;;;1.77;1.13;;;;;;;9.69;100.00;99515.06;5036053;28;20967;-53
2022/11/24 04:03:19;;;;;;;9.57;2.53;;;;;;;9.68;100.00;99515.13;5037268;28;20474;-53
2022/11/24 04:05:46;;;;;;;2.47;1.20;;;;;;;9.73;100.00;99515.81;5037185;28;20477;-53
2022/11/24 04:08:13;;;;;;;14.63;4.03;;;;;;;9.81;100.00;99521.72;5042611;28;21077;-53
2022/11/24 04:10:40;;;;;;;8.37;1.10;;;;;;;9.67;100.00;99516.91;5037534;28;20914;-55
2022/11/24 04:13:13;;;;;;;1.83;0.93;;;;;;;9.95;100.00;99515.88;5035562;28;20479;-55
2022/11/24 04:15:41;;;;;;;1.40;1.30;;;;;;;9.76;100.00;99529.84;5039744;28;20455;-55
2022/11/24 04:18:10;;;;;;;21.27;2.00;;;;;;;9.82;100.00;99519.91;5042254;28;20840;-52
2022/11/24 04:20:37;;;;;;;3.53;0.80;;;;;;;9.82;100.00;99531.41;5039257;28;20932;-54
2022/11/24 04:23:03;;;;;;;1.13;1.03;;;;;;;9.92;100.00;99530.13;5035054;28;20856;-53
2022/11/24 04:25:30;;;;;;;3.50;1.53;;;;;;;9.75;100.00;99528.13;5038423;28;21020;-53
2022/11/24 04:27:57;;;;;;;2.37;2.17;;;;;;;9.87;100.00;99531.22;5042210;28;20586;-53
2022/11/24 04:30:25;;;;;;;11.97;1.30;;;;;;;9.68;100.00;99531.06;5039752;28;20450;-56
2022/11/24 04:32:51;;;;;;;10.93;1.07;;;;;;;9.84;100.00;99531.34;5035106;28;20482;-54
2022/11/24 04:35:18;;;;;;;1.40;1.03;;;;;;;9.78;100.00;99537.75;5038147;28;20463;-53
2022/11/24 04:37:45;;;;;;;8.17;2.07;;;;;;;9.76;100.00;99532.50;5041798;28;20448;-55
2022/11/24 04:40:12;;;;;;;5.60;2.57;;;;;;;10.04;100.00;99528.81;5040214;28;20926;-54
2022/11/24 04:42:38;;;;;;;6.60;0.40;;;;;;;9.75;100.00;99532.56;5035319;28;20475;-53
2022/11/24 04:45:06;;;;;;;5.20;2.00;;;;;;;9.83;100.00;99540.22;5037656;28;20455;-55
2022/11/24 04:47:32;;;;;;;11.93;3.07;;;;;;;9.91;100.00;99543.47;5041908;28;20455;-52
2022/11/24 04:49:59;;;;;;;0.80;0.80;;;;;;;9.91;100.00;99539.03;5040041;28;20508;-54
2022/11/24 04:52:25;;;;;;;26.67;3.00;;;;;;;10.03;100.00;99543.88;5034520;28;20991;-55
2022/11/24 04:54:52;;;;;;;26.07;3.80;;;;;;;10.04;100.00;99553.56;5037159;28;20855;-55
2022/11/24 04:57:22;;;;;;;2.60;1.57;;;;;;;9.93;100.00;99547.78;5041869;28;20577;-54
2022/11/24 04:59:49;;;;;;;7.07;0.90;;;;;;;10.06;100.00;99548.19;5028865;28;20510;-53
2022/11/24 05:02:16;;;;;;;4.10;1.10;;;;;;;10.14;100.00;99551.41;5029168;28;20471;-55
2022/11/24 05:04:43;;;;;;;8.97;1.97;;;;;;;10.04;100.00;99555.34;5041336;28;20458;-55
2022/11/24 05:07:13;;;;;;;6.73;1.07;;;;;;;10.13;100.00;99560.28;5023952;28;20907;-53
2022/11/24 05:12:30;;;;;;;0.70;0.70;;;;;;;9.93;100.00;99565.50;5038489;28;20851;-54
2022/11/24 05:14:58;;;;;;;6.10;1.13;;;;;;;9.94;100.00;99569.91;5034610;28;20455;-53
2022/11/24 05:17:31;;;;;;;1.77;1.67;;;;;;;9.83;100.00;99580.03;5038673;28;20921;-53
2022/11/24 05:19:58;;;;;;;3.30;1.27;;;;;;;9.99;100.00;99581.19;5041986;28;20514;-53
2022/11/24 05:22:25;;;;;;;5.50;0.93;;;;;;;9.82;100.00;99588.94;5039477;28;20474;-53
2022/11/24 05:24:52;;;;;;;9.00;0.73;;;;;;;9.63;100.00;99596.72;5035065;28;20826;-55
2022/11/24 05:27:18;;;;;;;2.87;1.47;;;;;;;9.83;100.00;99601.28;5037332;28;20456;-53
2022/11/24 05:29:44;;;;;;;9.93;1.07;;;;;;;9.66;100.00;99608.06;5041593;28;20498;-52
2022/11/24 05:32:11;;;;;;;1.07;0.67;;;;;;;9.80;100.00;99602.25;5038959;28;20544;-56
2022/11/24 05:34:37;;;;;;;1.70;0.90;;;;;;;9.80;100.00;99602.25;5037066;28;20962;-53
2022/11/24 05:37:04;;;;;;;5.50;2.73;;;;;;;9.76;100.00;99609.47;5040938;28;20506;-55
2022/11/24 05:39:37;;;;;;;2.63;0.80;;;;;;;9.79;100.00;99614.66;5045174;28;20505;-55
2022/11/24 05:44:51;;;;;;;1.27;1.17;;;;;;;9.63;100.00;99621.44;5043459;28;21294;-53
2022/11/24 05:47:18;;;;;;;8.13;0.90;;;;;;;9.66;100.00;99625.78;5045203;28;20546;-54
2022/11/24 05:49:45;;;;;;;0.70;0.70;;;;;;;9.66;100.00;99623.13;5040565;28;20551;-54
2022/11/24 05:52:11;;;;;;;12.43;1.50;;;;;;;9.67;100.00;99619.53;5038573;28;20794;-53
2022/11/24 05:54:38;;;;;;;1.30;0.70;;;;;;;9.60;100.00;99616.25;5042692;28;20457;-54
2022/11/24 05:57:04;;;;;;;1.87;0.93;;;;;;;9.56;100.00;99611.09;5044667;28;20461;-53
2022/11/24 05:59:30;;;;;;;9.73;0.90;;;;;;;9.67;100.00;99615.09;5031631;28;20965;-53
2022/11/24 06:01:57;;;;;;;1.93;1.00;;;;;;;9.63;100.00;99610.84;5032663;28;20474;-53
2022/11/24 06:04:24;;;;;;;1.13;0.93;;;;;;;9.64;100.00;99619.66;5042090;28;20454;-55
2022/11/24 06:06:50;;;;;;;17.43;1.10;;;;;;;9.55;100.00;99618.19;5029632;28;20463;-53
2022/11/24 06:09:17;;;;;;;1.23;0.77;;;;;;;9.62;100.00;99616.19;5041906;28;20494;-54
2022/11/24 06:11:43;;;;;;;12.03;1.17;;;;;;;9.72;100.00;99622.88;5037460;28;20485;-53
2022/11/24 06:14:09;;;;;;;13.20;1.93;;;;;;;9.56;100.00;99621.72;5040815;28;20451;-54
2022/11/24 06:16:37;;;;;;;0.60;0.60;;;;;;;9.67;100.00;99624.84;5044781;28;20459;-54
2022/11/24 06:19:03;;;;;;;2.33;1.10;;;;;;;9.62;100.00;99630.34;5041623;28;20443;-54
2022/11/24 06:21:30;;;;;;;6.77;0.80;;;;;;;9.65;100.00;99624.91;5037446;28;20827;-53
2022/11/24 06:23:57;;;;;;;5.20;1.03;;;;;;;9.72;100.00;99633.50;5040454;28;20882;-54
2022/11/24 06:26:23;;;;;;;8.90;1.30;;;;;;;9.57;100.00;99631.41;5044168;28;20462;-54
2022/11/24 06:28:50;;;;;;;1.53;1.00;;;;;;;9.86;100.00;99638.31;5041701;28;20560;-54
2022/11/24 06:31:16;;;;;;;2.53;2.43;;;;;;;9.61;100.00;99639.22;5037357;28;20459;-54
2022/11/24 06:33:43;;;;;;;17.87;2.80;;;;;;;9.70;100.00;99640.66;5040395;28;20614;-53
2022/11/24 06:36:12;;;;;;;0.50;0.30;;;;;;;9.66;100.00;99636.38;5044213;28;20524;-55
2022/11/24 06:38:38;;;;;;;2.73;2.00;;;;;;;9.54;100.00;99635.03;5041480;28;20446;-53
2022/11/24 06:41:14;;;;;;;6.80;1.03;;;;;;;9.71;100.00;99642.38;5037574;28;20485;-56
2022/11/24 06:43:41;;;;;;;32.03;2.13;;;;;;;9.64;100.00;99647.06;5038374;28;20451;-54
2022/11/24 06:46:07;;;;;;;8.70;1.63;;;;;;;9.57;100.00;99653.50;5043982;28;20456;-54
2022/11/24 06:48:34;;;;;;;0.93;0.67;;;;;;;9.54;100.00;99650.94;5026074;28;20605;-54
2022/11/24 06:51:07;;;;;;;12.00;0.60;;;;;;;9.67;100.00;99662.88;5037021;28;20451;-55
2022/11/24 06:53:36;;;;;;;0.50;0.40;;;;;;;9.59;100.00;99664.03;5037317;28;20448;-54
2022/11/24 06:56:05;;;;;;;2.03;1.23;;;;;;;9.57;100.00;99660.59;5042458;28;20451;-54
2022/11/24 06:58:41;;;;;;;15.40;1.33;;;;;;;9.42;100.00;99662.84;5043776;28;20514;-54
2022/11/24 07:01:08;;;;;;;1.73;0.73;;;;;;;9.54;100.00;99666.00;5034722;28;20456;-54
2022/11/24 07:03:34;;;;;;;1.40;1.20;;;;;;;9.48;100.00;99673.25;5031002;28;20524;-53
2022/11/24 07:06:00;;;;;;;2.37;0.73;;;;;;;9.48;100.00;99675.06;5038940;28;20437;-55
2022/11/24 07:08:27;;;;;;;0.60;0.60;;;;;;;9.48;100.00;99667.97;5041099;28;20527;-53
2022/11/24 07:10:53;;;;;;;1.00;0.70;;;;;;;9.65;100.00;99669.16;5040965;28;20461;-56
2022/11/24 07:13:20;;;;;;;1.23;0.83;;;;;;;9.53;100.00;99662.47;5036795;28;20520;-54
2022/11/24 07:15:47;;;;;;;0.40;0.33;;;;;;;9.53;100.00;99670.44;5039295;28;20452;-54
2022/11/24 07:18:13;;;;;;;12.53;0.70;;;;;;;9.50;100.00;99674.06;5043292;28;20456;-55
2022/11/24 07:20:39;;;;;;;6.03;1.40;;;;;;;9.49;100.00;99685.59;5041021;28;20974;-54
2022/11/24 07:23:06;;;;;;;0.73;0.73;;;;;;;9.50;100.00;99689.13;5036414;28;21046;-53
2022/11/24 07:25:32;;;;;;;4.10;0.80;;;;;;;9.49;100.00;99692.69;5039073;28;20509;-57
2022/11/24 07:27:59;;;;;;;3.10;0.40;;;;;;;9.53;100.00;99699.63;5043399;28;20949;-54
2022/11/24 07:30:27;;;;;;;0.83;0.83;;;;;;;9.52;100.00;99704.97;5040964;28;20494;-53
2022/11/24 07:33:01;;;;;;;1.20;0.80;;;;;;;9.49;100.00;99713.91;5035983;28;20486;-55
2022/11/24 07:35:28;;;;;;;2.00;0.87;;;;;;;9.46;100.00;99712.25;5037479;28;20839;-53
2022/11/24 07:37:58;;;;;;;1.50;0.80;;;;;;;9.46;100.00;99722.00;5025434;28;20941;-54
2022/11/24 07:40:25;;;;;;;2.90;0.87;;;;;;;9.48;100.00;99728.09;5043001;28;20447;-55
2022/11/24 07:42:52;;;;;;;0.47;0.37;;;;;;;9.46;100.00;99729.94;5043264;28;21038;-54
2022/11/24 07:45:19;;;;;;;1.13;0.70;;;;;;;9.55;100.00;99736.72;5043062;28;20462;-53
2022/11/24 07:47:45;;;;;;;0.60;0.60;;;;;;;9.56;100.00;99746.41;5043395;28;20509;-54
2022/11/24 07:50:12;;;;;;;0.43;0.40;;;;;;;9.52;100.00;99750.94;5042977;28;20544;-58
2022/11/24 07:52:38;;;;;;;12.70;0.93;;;;;;;9.50;100.00;99744.84;5036459;28;20467;-54
2022/11/24 07:55:06;;;;;;;5.77;0.30;;;;;;;9.58;100.00;99753.38;5036130;28;20849;-56
2022/11/24 07:57:32;;;;;;;1.47;0.40;;;;;;;9.57;100.00;99756.97;5042150;28;20838;-54
2022/11/24 07:59:59;;;;;;;2.60;1.80;;;;;;;9.54;100.00;99762.38;5012658;28;20448;-55
2022/11/24 08:02:25;;;;;;;0.40;0.30;;;;;;;9.55;100.00;99753.50;5029814;28;20479;-53
2022/11/24 08:04:52;;;;;;;0.40;0.30;;;;;;;9.54;100.00;99770.34;5042885;28;20450;-55
2022/11/24 08:07:18;;;;;;;0.67;0.40;;;;;;;9.57;100.00;99772.00;5024861;28;20444;-55
2022/11/24 08:09:44;;;;;;;5.50;2.67;;;;;;;9.63;100.00;99780.66;5042427;28;21040;-55
2022/11/24 08:12:11;;;;;;;0.77;0.77;;;;;;;9.69;100.00;99780.44;5036993;28;20482;-53
2022/11/24 08:14:37;;;;;;;0.50;0.33;;;;;;;9.74;100.00;99785.63;5035639;28;20881;-53
2022/11/24 08:17:04;;;;;;;4.63;0.40;;;;;;;9.68;100.00;99785.81;5041871;28;20884;-55
2022/11/24 08:19:31;;;;;;;0.50;0.30;;;;;;;9.69;100.00;99793.72;5043344;28;20533;-53
2022/11/24 08:21:57;;;;;;;2.73;0.60;;;;;;;9.74;100.00;99782.97;5037288;28;20933;-53
2022/11/24 08:24:24;;;;;;;0.40;0.20;;;;;;;9.78;100.00;99793.41;5035625;28;20930;-53
2022/11/24 08:26:50;;;;;;;0.47;0.47;;;;;;;9.83;100.00;99787.06;5040454;28;20462;-55
2022/11/24 08:29:16;;;;;;;0.70;0.40;;;;;;;9.87;100.00;99786.03;5042024;28;20490;-54
2022/11/24 08:31:43;;;;;;;0.70;0.70;;;;;;;9.86;100.00;99779.88;5021991;28;21001;-53
2022/11/24 08:34:09;;;;;;;0.80;0.67;;;;;;;9.91;100.00;99787.69;5028058;28;20838;-56
2022/11/24 08:36:36;;;;;;;2.40;0.70;;;;;;;9.95;100.00;99794.63;5040604;28;20837;-56
2022/11/24 08:39:02;;;;;;;0.43;0.40;;;;;;;10.00;100.00;99796.19;5042664;28;20461;-56
2022/11/24 08:41:29;;;;;;;6.43;0.70;;;;;;;10.06;100.00;99808.41;5038425;28;20509;-56
2022/11/24 08:43:56;;;;;;;0.87;0.77;;;;;;;10.08;100.00;99810.09;5035848;28;20451;-56
2022/11/24 08:46:23;;;;;;;1.33;0.90;;;;;;;10.20;100.00;99810.59;5031145;28;20468;-57
2022/11/24 08:48:53;;;;;;;5.90;1.30;;;;;;;10.37;100.00;99814.41;5038843;28;20514;-57
2022/11/24 08:51:23;;;;;;;3.77;0.30;;;;;;;10.45;100.00;99807.97;5039486;28;20451;-56
2022/11/24 08:53:59;;;;;;;0.80;0.53;;;;;;;10.35;100.00;99815.41;5036519;28;20481;-56
2022/11/24 08:56:27;;;;;;;0.87;0.87;;;;;;;10.43;100.00;99820.47;5037552;28;20964;-56
2022/11/24 08:58:54;;;;;;;2.90;0.80;;;;;;;10.46;100.00;99817.69;5042689;28;20448;-56
2022/11/24 09:01:22;;;;;;;1.33;1.23;;;;;;;10.52;100.00;99817.44;5031629;28;20460;-57
2022/11/24 09:03:49;;;;;;;0.50;0.50;;;;;;;10.84;100.00;99817.16;5041655;28;20482;-56
2022/11/24 09:06:22;;;;;;;9.00;2.00;;;;;;;10.89;100.00;99812.53;5038062;28;20956;-56
2022/11/24 09:08:50;;;;;;;5.50;1.17;;;;;;;10.85;100.00;99826.00;5025739;28;20454;-56
2022/11/24 09:11:17;;;;;;;0.70;0.63;;;;;;;10.82;100.00;99826.94;5040180;28;20541;-56
2022/11/24 09:13:44;;;;;;;5.23;1.20;;;;;;;10.96;100.00;99818.47;5046060;28;20456;-56
2022/11/24 09:16:12;;;;;;;0.60;0.40;;;;;;;10.83;100.00;99827.84;5046278;28;20973;-57
2022/11/24 09:18:38;;;;;;;0.97;0.97;;;;;;;11.15;100.00;99823.97;5040885;28;20478;-56
2022/11/24 09:21:14;;;;;;;2.00;0.57;;;;;;;11.26;100.00;99827.94;5039934;28;20447;-57
2022/11/24 09:23:41;;;;;;;9.00;0.67;;;;;;;11.38;100.00;99828.41;5044589;28;20854;-57
2022/11/24 09:26:17;;;;;;;0.50;0.30;;;;;;;11.22;100.00;99828.97;5046378;28;20489;-56
2022/11/24 09:28:44;;;;;;;0.90;0.70;;;;;;;11.23;100.00;99844.00;5043499;28;21018;-56
2022/11/24 09:31:13;;;;;;;22.80;0.80;;;;;;;11.46;100.00;99840.47;5032621;28;20456;-56
2022/11/24 09:33:40;;;;;;;0.60;0.57;;;;;;;11.33;100.00;99841.00;5024084;28;20575;-56
2022/11/24 09:36:07;;;;;;;0.90;0.30;;;;;;;11.56;100.00;99852.50;5046343;28;20463;-56
2022/11/24 09:38:34;;;;;;;2.00;0.53;;;;;;;11.49;100.00;99860.75;5044003;28;20469;-56
2022/11/24 09:41:16;;;;;;;0.40;0.40;;;;;;;11.58;100.00;99863.06;5034973;28;20447;-56
2022/11/24 09:44:06;;;;;;;1.43;0.60;;;;;;;11.82;100.00;99871.91;5046110;28;20454;-56
2022/11/24 09:46:58;;;;;;;3.70;0.50;;;;;;;11.93;98.72;99874.16;5043139;28;20450;-56
2022/11/24 09:49:47;;;;;;;2.63;0.70;;;;;;;12.08;97.89;99876.19;5045794;28;20574;-57
2022/11/24 09:52:25;;;;;;;2.97;1.10;;;;;;;12.14;97.32;99879.44;5046040;28;20482;-56
2022/11/24 09:54:57;;;;;;;2.90;1.80;;;;;;;11.99;94.83;99866.75;5044751;28;20421;-56
2022/11/24 09:57:28;;;;;;;2.50;0.80;;;;;;;11.94;95.41;99871.44;5021259;28;20512;-57
2022/11/24 10:00:11;;;;;;;1.17;1.07;;;;;;;11.80;95.85;99892.41;5039171;28;20449;-56
2022/11/24 10:02:37;;;;;;;0.50;0.40;;;;;;;11.84;94.55;99886.91;5030548;28;20522;-56
2022/11/24 10:05:05;;;;;;;8.00;1.53;;;;;;;11.85;95.43;99885.97;5045629;28;20878;-57
2022/11/24 10:07:41;;;;;;;2.93;1.27;;;;;;;11.98;95.64;99893.47;5027715;28;20796;-57
2022/11/24 10:10:29;;;;;;;1.30;0.30;;;;;;;11.69;95.79;99900.78;5045113;28;20496;-57
2022/11/24 10:13:02;;;;;;;3.63;0.40;;;;;;;11.93;95.72;99895.47;5027814;28;20479;-56
2022/11/24 10:15:37;;;;;;;0.40;0.40;;;;;;;11.96;95.42;99898.00;5040458;28;20450;-57
2022/11/24 10:18:29;;;;;;;3.30;1.23;;;;;;;12.03;96.08;99889.66;5038563;28;20451;-57
2022/11/24 10:21:41;;;;;;;24.83;0.87;;;;;;;12.20;95.30;99901.44;5038361;28;20418;-57
2022/11/24 10:24:42;;;;;;;1.73;1.27;;;;;;;12.01;96.54;99906.66;4987283;28;20447;-57
2022/11/24 10:27:20;;;;;;;3.43;1.33;;;;;;;11.90;94.61;99904.41;5032696;28;20825;-56
2022/11/24 10:29:50;;;;;;;0.83;0.83;;;;;;;11.85;94.49;99898.41;5038209;28;20494;-57
2022/11/24 10:32:26;;;;;;;1.60;0.90;;;;;;;11.75;93.67;99905.00;5039437;28;20479;-57
2022/11/24 10:34:58;;;;;;;0.80;0.50;;;;;;;11.78;94.32;99902.22;5026502;28;20482;-56
2022/11/24 10:37:32;;;;;;;1.43;1.33;;;;;;;12.03;94.13;99907.44;5038344;28;20521;-56
2022/11/24 10:40:11;;;;;;;2.20;1.17;;;;;;;11.90;94.34;99907.09;5042789;28;20506;-56
2022/11/24 10:42:58;;;;;;;1.30;0.97;;;;;;;12.19;93.78;99908.56;5026062;28;20462;-56
2022/11/24 10:45:26;;;;;;;2.20;1.40;;;;;;;12.07;92.98;99912.63;5038473;28;20455;-56
2022/11/24 10:47:53;;;;;;;1.70;0.30;;;;;;;12.18;93.82;99913.94;5043792;28;20538;-56
2022/11/24 10:50:25;;;;;;;7.10;0.93;;;;;;;12.06;92.67;99916.22;5045966;28;20491;-56
2022/11/24 10:53:13;;;;;;;1.30;0.80;;;;;;;12.22;92.29;99916.44;5024382;28;20877;-56
2022/11/24 10:55:55;;;;;;;1.73;0.43;;;;;;;12.37;91.58;99915.81;5044709;28;20434;-56
2022/11/24 10:58:22;;;;;;;1.03;0.80;;;;;;;12.32;92.30;99912.44;5044628;28;20446;-56
2022/11/24 11:00:48;;;;;;;0.83;0.50;;;;;;;12.37;91.87;99921.13;5038073;28;20444;-56
2022/11/24 11:03:16;;;;;;;0.40;0.30;;;;;;;12.35;90.70;99916.81;5026485;28;20471;-56
2022/11/24 11:06:12;;;;;;;2.00;0.90;;;;;;;12.33;91.70;99921.31;5043276;28;20455;-56
2022/11/24 11:08:38;;;;;;;0.50;0.33;;;;;;;12.30;91.63;99924.09;5043627;28;20541;-56
2022/11/24 11:11:20;;;;;;;1.83;1.70;;;;;;;12.32;90.43;99922.25;5043494;28;21009;-56
2022/11/24 11:13:57;;;;;;;4.63;0.57;;;;;;;12.33;89.64;99929.31;5026539;28;20433;-56
2022/11/24 11:16:37;;;;;;;0.70;0.63;;;;;;;12.27;90.39;99927.78;5037192;28;20956;-56
2022/11/24 11:19:40;;;;;;;0.93;0.93;;;;;;;12.58;89.38;99930.00;5040425;28;20502;-56
2022/11/24 11:22:29;;;;;;;1.43;0.90;;;;;;;12.16;90.42;99924.69;4942604;29;21053;-56
2022/11/24 11:25:04;;;;;;;0.60;0.60;;;;;;;12.18;91.25;99935.25;5019828;28;20451;-56
2022/11/24 11:27:31;;;;;;;2.73;0.43;;;;;;;12.13;90.34;99938.13;5037238;28;20451;-56
2022/11/24 11:30:20;;;;;;;5.30;1.03;;;;;;;12.24;91.59;99946.56;5043438;28;20495;-56
2022/11/24 11:33:21;;;;;;;1.03;0.50;;;;;;;12.32;90.53;99943.56;5017582;28;20519;-55
2022/11/24 11:36:09;;;;;;;14.63;2.20;;;;;;;12.42;91.02;99943.13;5043462;28;20452;-56
2022/11/24 11:38:38;;;;;;;3.33;1.00;;;;;;;12.20;90.36;99941.41;5041665;28;20433;-56
2022/11/24 11:41:09;;;;;;;1.57;0.43;;;;;;;12.26;89.46;99943.81;5036904;28;20446;-57
2022/11/24 11:43:39;;;;;;;5.37;1.97;;;;;;;12.20;89.01;99939.63;5037180;28;20452;-56
2022/11/24 11:46:11;;;;;;;9.47;1.10;;;;;;;12.06;89.89;99940.19;5008005;28;20993;-57
2022/11/24 11:48:43;;;;;;;9.93;1.20;;;;;;;12.00;89.54;99943.09;5036807;28;20494;-57
2022/11/24 11:51:40;;;;;;;3.07;0.50;;;;;;;11.98;90.69;99944.94;5040941;28;20492;-57